Belmont, United Kingdom
Current Conditions -  °F | °C
As of 3:20 PM on Friday 19 Dec 2014 (Local Time) from EGBJ Reporting Station
Few Clouds Few Clouds  
Wind Chill: 46°   Ceiling: Unl
Heat Index: 46°   Visibility: 6mi
Dew Point: 37°   Wind: 3mph
Humidity: 71%   Direction: 270°W
Pressure: 30.06"   Gusts: NA
Location:  52.04°N, 2.74°W
Report Text: EGBJ 191520Z 27003KT 9999 FEW030 08/03 Q1018
Loading
Personal Weather Stations






























Interactive Weather Map New forecast layout! Learn more

10-Day Weather Forecast

Advertisements
Track Severe Weather on mobile